createdAt,value
2018-05-26T00:00:59.334Z,58.48
2018-05-26T00:01:59.811Z,58.21
2018-05-26T00:03:00.283Z,58.12
2018-05-26T00:04:00.756Z,58.24
2018-05-26T00:05:01.236Z,58.24
2018-05-26T00:06:01.715Z,58.35
2018-05-26T00:07:02.186Z,58.43
2018-05-26T00:08:02.655Z,58.52
2018-05-26T00:09:03.134Z,58.49
2018-05-26T00:10:03.656Z,58.54
2018-05-26T00:11:04.082Z,58.68
2018-05-26T00:12:04.558Z,58.71
2018-05-26T00:13:05.030Z,58.74
2018-05-26T00:14:05.504Z,58.82
2018-05-26T00:15:06.134Z,58.53
2018-05-26T00:16:06.456Z,58.50
2018-05-26T00:17:06.930Z,58.38
2018-05-26T00:18:07.405Z,58.21
2018-05-26T00:19:07.880Z,58.55
2018-05-26T00:20:08.406Z,58.50
2018-05-26T00:21:08.828Z,58.26
2018-05-26T00:22:09.302Z,58.55
2018-05-26T00:23:09.784Z,58.58
2018-05-26T00:24:10.249Z,58.46
2018-05-26T00:25:10.725Z,58.37
2018-05-26T00:26:11.201Z,58.54
2018-05-26T00:27:11.674Z,58.66
2018-05-26T00:28:12.145Z,58.71
2018-05-26T00:29:12.622Z,58.74
2018-05-26T00:30:13.095Z,58.57
2018-05-26T00:31:13.564Z,58.77
2018-05-26T00:32:14.036Z,58.59
2018-05-26T00:33:14.510Z,58.65
2018-05-26T00:34:14.983Z,58.56
2018-05-26T00:35:15.504Z,58.32
2018-05-26T00:36:15.926Z,58.55
2018-05-26T00:37:16.399Z,58.52
2018-05-26T00:38:16.871Z,58.49
2018-05-26T00:39:17.344Z,58.31
2018-05-26T00:40:17.813Z,58.25
2018-05-26T00:41:18.284Z,58.01
2018-05-26T00:42:18.755Z,58.22
2018-05-26T00:43:19.227Z,58.04
2018-05-26T00:44:19.696Z,58.38
2018-05-26T00:45:20.217Z,58.27
2018-05-26T00:46:20.639Z,58.27
2018-05-26T00:47:21.114Z,58.29
2018-05-26T00:48:21.581Z,58.26
2018-05-26T00:49:22.053Z,58.14
2018-05-26T00:50:22.522Z,58.02
2018-05-26T00:51:22.992Z,57.81
2018-05-26T00:52:23.464Z,57.84
2018-05-26T00:53:23.935Z,57.86
2018-05-26T00:54:24.407Z,58.00
2018-05-26T00:55:24.879Z,58.14
2018-05-26T00:56:25.348Z,58.29
2018-05-26T00:57:25.819Z,58.22
2018-05-26T00:58:26.295Z,58.25
2018-05-26T00:59:26.773Z,58.25
2018-05-26T01:00:27.291Z,58.21
2018-05-26T01:01:27.710Z,58.13
2018-05-26T01:02:28.180Z,58.18
2018-05-26T01:03:28.657Z,58.14
2018-05-26T01:04:29.125Z,58.26
2018-05-26T01:05:29.597Z,58.28
2018-05-26T01:06:30.071Z,58.25
2018-05-26T01:07:30.544Z,58.28
2018-05-26T01:08:31.020Z,58.25
2018-05-26T01:09:31.492Z,58.15
2018-05-26T01:10:32.014Z,58.15
2018-05-26T01:11:32.436Z,58.29
2018-05-26T01:12:32.909Z,58.40
2018-05-26T01:13:33.384Z,58.43
2018-05-26T01:14:33.858Z,58.43
2018-05-26T01:15:34.334Z,58.51
2018-05-26T01:16:34.806Z,58.57
2018-05-26T01:17:35.282Z,58.62
2018-05-26T01:18:35.754Z,58.65
2018-05-26T01:19:36.230Z,58.76
2018-05-26T01:20:36.703Z,58.73
2018-05-26T01:21:37.178Z,58.67
2018-05-26T01:22:37.653Z,58.84
2018-05-26T01:23:38.129Z,58.84
2018-05-26T01:24:38.603Z,58.90
2018-05-26T01:25:39.081Z,58.87
2018-05-26T01:26:39.550Z,58.92
2018-05-26T01:27:40.026Z,58.89
2018-05-26T01:28:40.499Z,59.12
2018-05-26T01:29:40.974Z,59.09
2018-05-26T01:30:41.449Z,59.11
2018-05-26T01:31:41.924Z,59.23
2018-05-26T01:32:42.395Z,59.14
2018-05-26T01:33:42.871Z,58.96
2018-05-26T01:34:43.344Z,59.16
2018-05-26T01:35:43.867Z,58.99
2018-05-26T01:36:44.289Z,59.07
2018-05-26T01:37:44.761Z,58.81
2018-05-26T01:38:45.238Z,58.95
2018-05-26T01:39:45.708Z,59.04
2018-05-26T01:40:46.180Z,59.32
2018-05-26T01:41:46.653Z,59.12
2018-05-26T01:42:47.126Z,59.49
2018-05-26T01:43:47.598Z,59.20
2018-05-26T01:44:48.068Z,59.40
2018-05-26T01:45:48.658Z,59.60
2018-05-26T01:46:49.011Z,59.49
2018-05-26T01:47:49.481Z,59.31
2018-05-26T01:48:49.953Z,59.48
2018-05-26T01:49:50.423Z,59.68
2018-05-26T01:50:51.057Z,59.68
2018-05-26T01:51:51.370Z,59.88
2018-05-26T01:52:51.835Z,59.99
2018-05-26T01:53:52.306Z,60.07
2018-05-26T01:54:52.777Z,59.98
2018-05-26T01:55:53.252Z,59.95
2018-05-26T01:56:53.718Z,60.01
2018-05-26T01:57:54.188Z,60.04
2018-05-26T01:58:54.659Z,60.17
2018-05-26T01:59:55.131Z,60.17
2018-05-26T02:00:55.603Z,60.14
2018-05-26T02:01:56.079Z,60.20
2018-05-26T02:02:56.544Z,60.34
2018-05-26T02:03:57.015Z,60.59
2018-05-26T02:04:57.484Z,60.51
2018-05-26T02:05:58.013Z,60.54
2018-05-26T02:06:58.428Z,60.70
2018-05-26T02:07:58.903Z,60.81
2018-05-26T02:08:59.374Z,60.75
2018-05-26T02:09:59.845Z,60.67
2018-05-26T02:11:00.315Z,60.64
2018-05-26T02:12:00.787Z,60.55
2018-05-26T02:13:01.258Z,60.72
2018-05-26T02:14:01.732Z,60.75
2018-05-26T02:15:02.205Z,60.74
2018-05-26T02:16:02.931Z,60.83
2018-05-26T02:17:03.153Z,60.80
2018-05-26T02:18:03.621Z,60.85
2018-05-26T02:19:04.095Z,60.85
2018-05-26T02:20:04.569Z,60.85
2018-05-26T02:21:05.041Z,60.76
2018-05-26T02:22:05.513Z,60.64
2018-05-26T02:23:05.986Z,60.65
2018-05-26T02:24:06.462Z,60.56
2018-05-26T02:25:06.940Z,60.56
2018-05-26T02:26:07.408Z,60.64
2018-05-26T02:27:07.885Z,60.70
2018-05-26T02:28:08.356Z,60.73
2018-05-26T02:29:08.832Z,60.75
2018-05-26T02:30:09.305Z,60.75
2018-05-26T02:31:09.780Z,60.67
2018-05-26T02:32:10.266Z,60.75
2018-05-26T02:33:10.727Z,60.86
2018-05-26T02:34:11.204Z,60.80
2018-05-26T02:35:11.677Z,60.95
2018-05-26T02:36:12.303Z,60.77
2018-05-26T02:37:12.625Z,60.91
2018-05-26T02:38:13.101Z,60.86
2018-05-26T02:39:13.582Z,60.71
2018-05-26T02:40:14.050Z,60.57
2018-05-26T02:41:14.539Z,60.34
2018-05-26T02:42:14.997Z,60.37
2018-05-26T02:43:15.471Z,60.57
2018-05-26T02:44:15.945Z,60.45
2018-05-26T02:45:16.416Z,60.62
2018-05-26T02:46:16.889Z,60.33
2018-05-26T02:47:17.362Z,60.22
2018-05-26T02:48:17.837Z,60.27
2018-05-26T02:49:18.308Z,60.05
2018-05-26T02:50:18.782Z,59.81
2018-05-26T02:51:19.456Z,59.24
2018-05-26T02:52:19.724Z,58.52
2018-05-26T02:53:20.196Z,57.59
2018-05-26T02:54:20.668Z,57.04
2018-05-26T02:55:21.139Z,56.60
2018-05-26T02:56:21.610Z,56.34
2018-05-26T02:57:22.081Z,56.28
2018-05-26T02:58:22.552Z,55.89
2018-05-26T02:59:23.028Z,55.39
2018-05-26T03:00:23.495Z,54.71
2018-05-26T03:01:24.168Z,54.65
2018-05-26T03:02:24.435Z,54.59
2018-05-26T03:03:24.911Z,54.65
2018-05-26T03:04:25.391Z,53.93
2018-05-26T03:05:25.848Z,53.78
2018-05-26T03:06:26.370Z,53.51
2018-05-26T03:07:26.788Z,53.15
2018-05-26T03:08:27.260Z,53.27
2018-05-26T03:09:27.730Z,53.27
2018-05-26T03:10:28.200Z,52.88
2018-05-26T03:11:28.723Z,52.79
2018-05-26T03:12:29.142Z,52.36
2018-05-26T03:13:29.613Z,52.66
2018-05-26T03:14:30.085Z,52.54
2018-05-26T03:15:30.556Z,52.00
2018-05-26T03:16:31.027Z,51.97
2018-05-26T03:17:31.498Z,51.97
2018-05-26T03:18:31.969Z,51.99
2018-05-26T03:19:32.440Z,52.11
2018-05-26T03:20:32.912Z,52.14
2018-05-26T03:21:33.384Z,52.26
2018-05-26T03:22:33.855Z,52.25
2018-05-26T03:23:34.329Z,52.37
2018-05-26T03:24:34.801Z,52.40
2018-05-26T03:25:35.275Z,52.37
2018-05-26T03:26:35.745Z,52.49
2018-05-26T03:27:36.219Z,52.46
2018-05-26T03:28:36.690Z,52.42
2018-05-26T03:29:37.161Z,52.16
2018-05-26T03:30:37.636Z,52.27
2018-05-26T03:31:38.158Z,52.09
2018-05-26T03:32:38.583Z,52.33
2018-05-26T03:33:39.057Z,52.51
2018-05-26T03:34:39.532Z,52.42
2018-05-26T03:35:40.003Z,52.50
2018-05-26T03:36:40.477Z,52.53
2018-05-26T03:37:40.949Z,52.41
2018-05-26T03:38:41.423Z,52.44
2018-05-26T03:39:41.898Z,52.50
2018-05-26T03:40:42.373Z,52.58
2018-05-26T03:41:42.847Z,52.44
2018-05-26T03:42:43.319Z,52.56
2018-05-26T03:43:43.794Z,52.67
2018-05-26T03:44:44.270Z,52.49
2018-05-26T03:45:44.744Z,52.37
2018-05-26T03:46:45.269Z,52.37
2018-05-26T03:47:45.690Z,52.46
2018-05-26T03:48:46.174Z,52.46
2018-05-26T03:49:46.640Z,52.40
2018-05-26T03:50:47.116Z,52.34
2018-05-26T03:51:47.742Z,52.34
2018-05-26T03:52:48.062Z,52.64
2018-05-26T03:53:48.534Z,52.55
2018-05-26T03:54:49.009Z,52.60
2018-05-26T03:55:49.482Z,52.57
2018-05-26T03:56:49.958Z,52.66
2018-05-26T03:57:50.431Z,52.55
2018-05-26T03:58:50.904Z,52.55
2018-05-26T03:59:51.376Z,52.70
2018-05-26T04:00:51.854Z,52.64
2018-05-26T04:01:52.325Z,52.64
2018-05-26T04:02:52.794Z,52.67
2018-05-26T04:03:53.266Z,52.76
2018-05-26T04:04:53.738Z,52.91
2018-05-26T04:05:54.271Z,52.91
2018-05-26T04:06:54.684Z,52.91
2018-05-26T04:07:55.151Z,53.00
2018-05-26T04:08:55.624Z,53.06
2018-05-26T04:09:56.095Z,53.03
2018-05-26T04:10:56.567Z,52.89
2018-05-26T04:11:57.037Z,52.86
2018-05-26T04:12:57.508Z,52.80
2018-05-26T04:13:57.979Z,52.86
2018-05-26T04:14:58.451Z,52.80
2018-05-26T04:15:58.923Z,52.81
2018-05-26T04:16:59.394Z,52.75
2018-05-26T04:17:59.862Z,52.78
2018-05-26T04:19:00.333Z,52.82
2018-05-26T04:20:00.808Z,52.76
2018-05-26T04:21:01.277Z,52.76
2018-05-26T04:22:01.745Z,52.83
2018-05-26T04:23:02.222Z,52.95
2018-05-26T04:24:02.689Z,52.95
2018-05-26T04:25:03.159Z,52.96
2018-05-26T04:26:03.765Z,53.02
2018-05-26T04:27:04.103Z,53.05
2018-05-26T04:28:04.573Z,53.06
2018-05-26T04:29:05.046Z,53.06
2018-05-26T04:30:05.518Z,53.12
2018-05-26T04:31:05.998Z,53.13
2018-05-26T04:32:06.463Z,53.16
2018-05-26T04:33:06.940Z,53.11
2018-05-26T04:34:07.407Z,53.14
2018-05-26T04:35:07.879Z,53.11
2018-05-26T04:36:08.353Z,53.09
2018-05-26T04:37:08.877Z,53.10
2018-05-26T04:38:09.304Z,53.13
2018-05-26T04:39:09.773Z,53.05
2018-05-26T04:40:10.247Z,52.96
2018-05-26T04:41:10.720Z,52.94
2018-05-26T04:42:11.345Z,52.85
2018-05-26T04:43:11.668Z,52.86
2018-05-26T04:44:12.140Z,52.69
2018-05-26T04:45:12.616Z,52.63
2018-05-26T04:46:13.093Z,52.52
2018-05-26T04:47:13.567Z,52.37
2018-05-26T04:48:14.040Z,52.35
2018-05-26T04:49:14.516Z,52.35
2018-05-26T04:50:14.990Z,52.30
2018-05-26T04:51:15.464Z,52.34
2018-05-26T04:52:15.940Z,52.25
2018-05-26T04:53:16.415Z,52.19
2018-05-26T04:54:16.892Z,52.11
2018-05-26T04:55:17.365Z,52.06
2018-05-26T04:56:17.839Z,51.94
2018-05-26T04:57:18.316Z,51.77
2018-05-26T04:58:18.790Z,51.56
2018-05-26T04:59:19.264Z,51.36
2018-05-26T05:00:19.740Z,51.39
2018-05-26T05:01:20.220Z,51.28
2018-05-26T05:02:20.687Z,51.28
2018-05-26T05:03:21.167Z,51.26
2018-05-26T05:04:21.638Z,51.18
2018-05-26T05:05:22.112Z,51.06
2018-05-26T05:06:22.585Z,50.98
2018-05-26T05:07:23.109Z,50.89
2018-05-26T05:08:23.540Z,50.84
2018-05-26T05:09:24.006Z,50.79
2018-05-26T05:10:24.478Z,50.70
2018-05-26T05:11:24.953Z,50.65
2018-05-26T05:12:25.629Z,50.59
2018-05-26T05:13:25.899Z,50.45
2018-05-26T05:14:26.373Z,50.33
2018-05-26T05:15:26.845Z,50.22
2018-05-26T05:16:27.317Z,50.22
2018-05-26T05:17:27.792Z,50.17
2018-05-26T05:18:28.262Z,50.17
2018-05-26T05:19:28.734Z,50.09
2018-05-26T05:20:29.206Z,50.06
2018-05-26T05:21:29.682Z,49.95
2018-05-26T05:22:30.149Z,49.89
2018-05-26T05:23:30.622Z,49.90
2018-05-26T05:24:31.092Z,49.91
2018-05-26T05:25:31.565Z,49.92
2018-05-26T05:26:32.173Z,49.92
2018-05-26T05:27:32.507Z,49.87
2018-05-26T05:28:32.982Z,49.84
2018-05-26T05:29:33.451Z,49.82
2018-05-26T05:30:33.923Z,49.64
2018-05-26T05:31:34.394Z,49.43
2018-05-26T05:32:34.955Z,49.23
2018-05-26T05:33:35.339Z,49.11
2018-05-26T05:34:35.809Z,49.05
2018-05-26T05:35:36.282Z,49.06
2018-05-26T05:36:36.754Z,48.97
2018-05-26T05:37:37.266Z,48.85
2018-05-26T05:38:37.698Z,48.83
2018-05-26T05:39:38.175Z,48.84
2018-05-26T05:40:38.645Z,48.78
2018-05-26T05:41:39.118Z,48.76
2018-05-26T05:42:39.593Z,48.61
2018-05-26T05:43:40.065Z,48.28
2018-05-26T05:44:40.541Z,48.01
2018-05-26T05:45:41.014Z,48.26
2018-05-26T05:46:41.488Z,48.27
2018-05-26T05:47:42.020Z,48.27
2018-05-26T05:48:42.439Z,48.22
2018-05-26T05:49:42.916Z,48.28
2018-05-26T05:50:43.388Z,48.38
2018-05-26T05:51:43.863Z,48.45
2018-05-26T05:52:44.541Z,48.49
2018-05-26T05:53:44.814Z,48.49
2018-05-26T05:54:45.291Z,48.50
2018-05-26T05:55:45.766Z,48.57
2018-05-26T05:56:46.243Z,48.64
2018-05-26T05:57:46.718Z,48.61
2018-05-26T05:58:47.196Z,48.59
2018-05-26T05:59:47.671Z,48.66
2018-05-26T06:00:48.146Z,48.66
2018-05-26T06:01:48.622Z,48.61
2018-05-26T06:02:49.097Z,48.61
2018-05-26T06:03:49.573Z,48.62
2018-05-26T06:04:50.048Z,48.69
2018-05-26T06:05:50.574Z,48.63
2018-05-26T06:06:51.000Z,47.98
2018-05-26T06:07:51.526Z,47.17
2018-05-26T06:08:51.994Z,46.65
2018-05-26T06:09:52.426Z,46.27
2018-05-26T06:10:52.903Z,45.93
2018-05-26T06:11:53.380Z,45.94
2018-05-26T06:12:54.003Z,45.94
2018-05-26T06:13:54.328Z,45.98
2018-05-26T06:14:54.860Z,45.98
2018-05-26T06:15:55.275Z,45.96
2018-05-26T06:16:55.751Z,45.99
2018-05-26T06:17:56.276Z,45.90
2018-05-26T06:18:56.699Z,45.94
2018-05-26T06:19:57.175Z,46.00
2018-05-26T06:20:57.648Z,46.20
2018-05-26T06:21:58.120Z,46.43
2018-05-26T06:22:58.593Z,46.40
2018-05-26T06:23:59.068Z,46.31
2018-05-26T06:24:59.541Z,46.00
2018-05-26T06:26:00.015Z,45.94
2018-05-26T06:27:00.486Z,45.85
2018-05-26T06:28:01.015Z,46.08
2018-05-26T06:29:01.434Z,45.93
2018-05-26T06:30:01.913Z,45.71
2018-05-26T06:31:02.380Z,45.62
2018-05-26T06:32:02.851Z,45.69
2018-05-26T06:33:03.324Z,45.63
2018-05-26T06:34:03.798Z,45.83
2018-05-26T06:35:04.267Z,45.90
2018-05-26T06:36:04.740Z,45.81
2018-05-26T06:37:05.213Z,45.72
2018-05-26T06:38:05.689Z,45.47
2018-05-26T06:39:06.161Z,45.60
2018-05-26T06:40:06.630Z,45.64
2018-05-26T06:41:07.102Z,45.71
2018-05-26T06:42:07.574Z,45.23
2018-05-26T06:43:08.047Z,45.05
2018-05-26T06:44:08.519Z,44.96
2018-05-26T06:45:08.991Z,44.61
2018-05-26T06:46:09.463Z,44.62
2018-05-26T06:47:09.937Z,44.69
2018-05-26T06:48:10.463Z,44.46
2018-05-26T06:49:10.883Z,44.37
2018-05-26T06:50:11.356Z,44.28
2018-05-26T06:51:11.875Z,43.74
2018-05-26T06:52:12.300Z,43.97
2018-05-26T06:53:12.777Z,44.07
2018-05-26T06:54:13.249Z,44.08
2018-05-26T06:55:13.723Z,44.08
2018-05-26T06:56:14.201Z,44.18
2018-05-26T06:57:14.672Z,44.28
2018-05-26T06:58:15.351Z,44.25
2018-05-26T06:59:15.621Z,44.36
2018-05-26T07:00:16.109Z,44.46
2018-05-26T07:01:16.572Z,44.56
2018-05-26T07:02:17.046Z,44.63
2018-05-26T07:03:17.523Z,44.76
2018-05-26T07:04:17.999Z,44.89
2018-05-26T07:05:18.475Z,44.93
2018-05-26T07:06:18.953Z,44.65
2018-05-26T07:07:19.426Z,44.56
2018-05-26T07:08:19.913Z,44.50
2018-05-26T07:09:20.380Z,44.40
2018-05-26T07:10:20.856Z,44.54
2018-05-26T07:11:21.334Z,44.54
2018-05-26T07:12:21.809Z,44.55
2018-05-26T07:13:22.291Z,44.55
2018-05-26T07:14:22.761Z,44.30
2018-05-26T07:15:23.238Z,43.79
2018-05-26T07:16:23.713Z,43.60
2018-05-26T07:17:24.189Z,42.93
2018-05-26T07:18:24.668Z,42.67
2018-05-26T07:19:25.154Z,42.12
2018-05-26T07:20:25.619Z,41.96
2018-05-26T07:21:26.092Z,42.07
2018-05-26T07:22:26.569Z,41.94
2018-05-26T07:23:27.197Z,41.68
2018-05-26T07:24:27.521Z,41.49
2018-05-26T07:25:27.994Z,41.26
2018-05-26T07:26:28.471Z,41.20
2018-05-26T07:27:28.954Z,40.95
2018-05-26T07:28:29.420Z,40.85
2018-05-26T07:29:29.895Z,41.18
2018-05-26T07:30:30.371Z,41.25
2018-05-26T07:31:30.845Z,41.19
2018-05-26T07:32:31.324Z,41.43
2018-05-26T07:33:31.950Z,41.66
2018-05-26T07:34:32.269Z,41.89
2018-05-26T07:35:32.743Z,41.99
2018-05-26T07:36:33.222Z,41.96
2018-05-26T07:37:33.692Z,41.94
2018-05-26T07:38:34.165Z,42.00
2018-05-26T07:39:34.638Z,41.81
2018-05-26T07:40:35.111Z,41.69
2018-05-26T07:41:35.585Z,41.43
2018-05-26T07:42:36.061Z,41.56
2018-05-26T07:43:36.531Z,41.41
2018-05-26T07:44:37.007Z,41.38
2018-05-26T07:45:37.479Z,41.18
2018-05-26T07:46:37.955Z,41.25
2018-05-26T07:47:38.425Z,41.39
2018-05-26T07:48:38.949Z,41.40
2018-05-26T07:49:39.372Z,41.47
2018-05-26T07:50:39.844Z,41.40
2018-05-26T07:51:40.317Z,41.31
2018-05-26T07:52:40.789Z,41.15
2018-05-26T07:53:41.264Z,40.96
2018-05-26T07:54:41.736Z,40.83
2018-05-26T07:55:42.208Z,40.64
2018-05-26T07:56:42.679Z,40.77
2018-05-26T07:58:43.718Z,41.21
2018-05-26T07:59:44.097Z,41.24
2018-05-26T08:00:44.571Z,41.35
2018-05-26T08:01:45.040Z,41.45
2018-05-26T08:02:45.516Z,41.45
2018-05-26T08:03:45.986Z,41.49
2018-05-26T08:04:46.456Z,41.56
2018-05-26T08:05:46.930Z,41.63
2018-05-26T08:06:47.401Z,41.67
2018-05-26T08:07:47.874Z,41.58
2018-05-26T08:08:48.396Z,41.68
2018-05-26T08:09:48.818Z,41.75
2018-05-26T08:10:49.326Z,41.76
2018-05-26T08:11:49.763Z,41.86
2018-05-26T08:12:50.237Z,41.90
2018-05-26T08:13:50.710Z,42.03
2018-05-26T08:14:51.185Z,42.10
2018-05-26T08:15:51.658Z,42.14
2018-05-26T08:16:52.131Z,42.18
2018-05-26T08:17:52.609Z,42.12
2018-05-26T08:18:53.080Z,42.10
2018-05-26T08:19:53.554Z,42.01
2018-05-26T08:20:54.032Z,41.91
2018-05-26T08:21:54.504Z,41.59
2018-05-26T08:22:54.980Z,41.80
2018-05-26T08:23:55.454Z,41.51
2018-05-26T08:24:55.932Z,41.58
2018-05-26T08:25:56.407Z,41.62
2018-05-26T08:26:56.883Z,41.39
2018-05-26T08:27:57.358Z,41.20
2018-05-26T08:28:57.835Z,41.34
2018-05-26T08:29:58.313Z,41.34
2018-05-26T08:30:58.790Z,40.98
2018-05-26T08:31:59.267Z,41.15
2018-05-26T08:32:59.742Z,41.16
2018-05-26T08:34:00.271Z,41.03
2018-05-26T08:35:00.699Z,40.90
2018-05-26T08:36:01.172Z,40.97
2018-05-26T08:37:01.651Z,40.91
2018-05-26T08:38:02.127Z,40.98
2018-05-26T08:39:02.756Z,40.92
2018-05-26T08:40:03.080Z,41.05
2018-05-26T08:41:03.557Z,40.79
2018-05-26T08:42:04.035Z,40.86
2018-05-26T08:43:04.513Z,40.73
2018-05-26T08:44:04.988Z,40.83
2018-05-26T08:45:05.468Z,40.74
2018-05-26T08:46:05.943Z,40.94
2018-05-26T08:47:06.419Z,40.88
2018-05-26T08:48:06.898Z,40.65
2018-05-26T08:49:07.574Z,40.83
2018-05-26T08:50:07.848Z,40.76
2018-05-26T08:51:08.326Z,40.83
2018-05-26T08:52:08.803Z,40.84
2018-05-26T08:53:09.277Z,40.71
2018-05-26T08:54:09.751Z,40.98
2018-05-26T08:55:10.227Z,40.99
2018-05-26T08:56:10.703Z,40.63
2018-05-26T08:57:11.178Z,40.61
2018-05-26T08:58:11.654Z,40.55
2018-05-26T08:59:12.180Z,40.75
2018-05-26T09:00:12.607Z,40.03
2018-05-26T09:01:13.082Z,40.57
2018-05-26T09:02:13.572Z,40.18
2018-05-26T09:03:14.031Z,40.48
2018-05-26T09:04:14.659Z,39.89
2018-05-26T09:05:14.982Z,39.39
2018-05-26T09:06:15.459Z,39.73
2018-05-26T09:07:15.934Z,39.80
2018-05-26T09:08:16.408Z,39.60
2018-05-26T09:09:16.881Z,39.67
2018-05-26T09:10:17.357Z,40.04
2018-05-26T09:11:17.863Z,40.24
2018-05-26T09:12:18.305Z,39.88
2018-05-26T09:13:18.779Z,39.71
2018-05-26T09:14:19.255Z,39.81
2018-05-26T09:15:19.730Z,39.61
2018-05-26T09:16:20.202Z,39.68
2018-05-26T09:17:20.677Z,39.88
2018-05-26T09:18:21.155Z,39.52
2018-05-26T09:19:21.626Z,39.48
2018-05-26T09:20:22.099Z,39.52
2018-05-26T09:21:22.574Z,39.82
2018-05-26T09:22:23.056Z,39.55
2018-05-26T09:23:23.522Z,39.55
2018-05-26T09:24:23.995Z,39.38
2018-05-26T09:25:24.503Z,39.74
2018-05-26T09:26:24.959Z,39.74
2018-05-26T09:27:25.416Z,39.94
2018-05-26T09:28:25.893Z,40.14
2018-05-26T09:29:26.416Z,40.00
2018-05-26T09:30:26.837Z,40.07
2018-05-26T09:31:27.311Z,40.06
2018-05-26T09:32:27.784Z,39.79
2018-05-26T09:33:28.266Z,40.16
2018-05-26T09:34:28.733Z,40.59
2018-05-26T09:35:29.205Z,40.62
2018-05-26T09:36:29.675Z,40.78
2018-05-26T09:37:30.151Z,40.78
2018-05-26T09:38:30.623Z,41.01
2018-05-26T09:39:31.095Z,41.14
2018-05-26T09:40:31.569Z,41.31
2018-05-26T09:41:32.043Z,41.37
2018-05-26T09:42:32.515Z,41.57
2018-05-26T09:43:32.990Z,41.67
2018-05-26T09:44:33.460Z,41.70
2018-05-26T09:45:33.932Z,41.74
2018-05-26T09:46:34.407Z,41.87
2018-05-26T09:47:34.880Z,41.93
2018-05-26T09:48:35.357Z,42.10
2018-05-26T09:49:35.825Z,42.17
2018-05-26T09:50:36.296Z,42.20
2018-05-26T09:51:36.771Z,42.37
2018-05-26T09:52:37.244Z,42.37
2018-05-26T09:53:37.715Z,42.17
2018-05-26T09:54:38.238Z,41.87
2018-05-26T09:55:38.661Z,42.27
2018-05-26T09:56:39.132Z,42.60
2018-05-26T09:57:39.607Z,42.50
2018-05-26T09:58:40.079Z,42.60
2018-05-26T09:59:40.601Z,42.54
2018-05-26T10:00:41.022Z,42.80
2018-05-26T10:01:41.498Z,42.63
2018-05-26T10:02:42.171Z,42.77
2018-05-26T10:03:42.442Z,41.94
2018-05-26T10:04:42.916Z,42.04
2018-05-26T10:05:43.388Z,42.18
2018-05-26T10:06:43.859Z,41.38
2018-05-26T10:07:44.333Z,42.11
2018-05-26T10:08:44.803Z,42.44
2018-05-26T10:09:45.277Z,42.77
2018-05-26T10:10:45.750Z,42.97
2018-05-26T10:11:46.223Z,43.03
2018-05-26T10:12:46.695Z,42.70
2018-05-26T10:13:47.168Z,42.37
2018-05-26T10:14:47.639Z,42.57
2018-05-26T10:15:48.114Z,42.77
2018-05-26T10:16:48.584Z,42.97
2018-05-26T10:17:49.058Z,43.36
2018-05-26T10:18:49.531Z,43.19
2018-05-26T10:19:50.224Z,43.56
2018-05-26T10:20:50.474Z,43.59
2018-05-26T10:21:50.952Z,43.55
2018-05-26T10:22:51.419Z,43.36
2018-05-26T10:23:51.891Z,43.68
2018-05-26T10:24:52.363Z,44.04
2018-05-26T10:25:52.836Z,43.94
2018-05-26T10:26:53.309Z,43.88
2018-05-26T10:27:53.781Z,44.07
2018-05-26T10:28:54.253Z,44.07
2018-05-26T10:29:54.877Z,44.27
2018-05-26T10:30:55.198Z,44.40
2018-05-26T10:31:55.670Z,44.27
2018-05-26T10:32:56.144Z,44.23
2018-05-26T10:33:56.618Z,44.20
2018-05-26T10:34:57.140Z,44.20
2018-05-26T10:35:57.560Z,44.69
2018-05-26T10:36:58.031Z,44.50
2018-05-26T10:37:58.504Z,44.63
2018-05-26T10:38:58.976Z,44.73
2018-05-26T10:39:59.449Z,44.79
2018-05-26T10:40:59.921Z,45.05
2018-05-26T10:42:00.392Z,44.76
2018-05-26T10:43:00.865Z,44.79
2018-05-26T10:44:01.338Z,44.95
2018-05-26T10:45:01.814Z,45.12
2018-05-26T10:46:02.284Z,44.96
2018-05-26T10:47:02.756Z,44.92
2018-05-26T10:48:03.227Z,44.89
2018-05-26T10:49:03.702Z,44.76
2018-05-26T10:50:04.258Z,45.09
2018-05-26T10:51:04.646Z,44.86
2018-05-26T10:52:05.121Z,44.80
2018-05-26T10:53:05.592Z,44.77
2018-05-26T10:54:06.065Z,44.47
2018-05-26T10:55:06.589Z,44.34
2018-05-26T10:56:07.011Z,44.28
2018-05-26T10:57:07.484Z,44.35
2018-05-26T10:58:07.957Z,44.35
2018-05-26T11:00:08.907Z,44.55
2018-05-26T11:01:09.385Z,44.80
2018-05-26T11:02:09.856Z,44.74
2018-05-26T11:03:10.332Z,45.00
2018-05-26T11:04:10.845Z,45.36
2018-05-26T11:05:11.281Z,45.23
2018-05-26T11:06:11.756Z,45.23
2018-05-26T11:07:12.236Z,44.94
2018-05-26T11:08:12.707Z,45.46
2018-05-26T11:09:13.386Z,45.30
2018-05-26T11:10:13.671Z,45.50
2018-05-26T11:11:14.139Z,45.60
2018-05-26T11:12:14.618Z,45.40
2018-05-26T11:13:15.095Z,45.66
2018-05-26T11:14:15.570Z,45.60
2018-05-26T11:15:16.200Z,45.54
2018-05-26T11:16:16.637Z,45.47
2018-05-26T11:17:17.001Z,45.47
2018-05-26T11:18:17.481Z,45.54
2018-05-26T11:19:17.957Z,45.35
2018-05-26T11:20:18.479Z,45.54
2018-05-26T11:21:18.908Z,45.48
2018-05-26T11:22:19.386Z,45.64
2018-05-26T11:23:19.925Z,45.52
2018-05-26T11:24:20.388Z,45.68
2018-05-26T11:25:20.829Z,45.48
2018-05-26T11:26:21.298Z,45.09
2018-05-26T11:27:21.774Z,45.10
2018-05-26T11:28:22.255Z,44.97
2018-05-26T11:29:22.731Z,44.84
2018-05-26T11:30:23.207Z,45.07
2018-05-26T11:31:23.683Z,44.52
2018-05-26T11:32:24.161Z,44.16
2018-05-26T11:33:24.638Z,44.13
2018-05-26T11:34:25.112Z,44.06
2018-05-26T11:35:25.743Z,44.00
2018-05-26T11:36:26.068Z,44.00
2018-05-26T11:37:26.555Z,43.74
2018-05-26T11:38:27.021Z,42.92
2018-05-26T11:39:27.498Z,43.38
2018-05-26T11:40:27.974Z,43.88
2018-05-26T11:41:28.452Z,43.75
2018-05-26T11:42:28.928Z,43.91
2018-05-26T11:43:29.406Z,43.55
2018-05-26T11:44:29.884Z,43.49
2018-05-26T11:45:30.405Z,43.95
2018-05-26T11:46:30.831Z,43.65
2018-05-26T11:47:31.309Z,43.66
2018-05-26T11:48:31.785Z,43.46
2018-05-26T11:49:32.260Z,43.17
2018-05-26T11:50:32.738Z,43.10
2018-05-26T11:51:33.213Z,43.23
2018-05-26T11:52:33.688Z,43.20
2018-05-26T11:53:34.163Z,43.57
2018-05-26T11:54:34.640Z,43.11
2018-05-26T11:55:35.319Z,43.83
2018-05-26T11:56:35.595Z,43.93
2018-05-26T11:57:36.067Z,43.57
2018-05-26T11:58:36.545Z,43.64
2018-05-26T11:59:37.018Z,44.26
2018-05-26T12:00:37.546Z,44.26
2018-05-26T12:01:37.968Z,44.03
2018-05-26T12:02:38.445Z,44.29
2018-05-26T12:03:38.921Z,44.43
2018-05-26T12:04:39.395Z,44.92
2018-05-26T12:05:39.870Z,44.69
2018-05-26T12:06:40.345Z,44.56
2018-05-26T12:07:40.821Z,44.37
2018-05-26T12:08:41.297Z,44.04
2018-05-26T12:09:41.771Z,44.04
2018-05-26T12:10:42.245Z,43.85
2018-05-26T12:11:42.721Z,44.14
2018-05-26T12:12:43.196Z,43.95
2018-05-26T12:13:43.670Z,44.38
2018-05-26T12:14:44.148Z,44.48
2018-05-26T12:15:44.673Z,44.51
2018-05-26T12:16:45.097Z,44.41
2018-05-26T12:17:45.571Z,44.25
2018-05-26T12:18:46.045Z,44.09
2018-05-26T12:19:46.520Z,44.65
2018-05-26T12:20:47.146Z,45.01
2018-05-26T12:21:47.469Z,44.94
2018-05-26T12:22:47.948Z,44.46
2018-05-26T12:23:48.420Z,43.70
2018-05-26T12:24:48.893Z,43.54
2018-05-26T12:25:49.368Z,43.80
2018-05-26T12:26:49.870Z,44.04
2018-05-26T12:27:50.318Z,44.13
2018-05-26T12:28:50.794Z,44.07
2018-05-26T12:29:51.270Z,43.48
2018-05-26T12:30:51.741Z,42.82
2018-05-26T12:31:52.217Z,43.16
2018-05-26T12:32:52.690Z,42.79
2018-05-26T12:33:53.163Z,42.76
2018-05-26T12:34:53.639Z,42.60
2018-05-26T12:35:54.271Z,42.30
2018-05-26T12:36:54.594Z,42.31
2018-05-26T12:37:55.064Z,42.44
2018-05-26T12:38:55.540Z,42.38
2018-05-26T12:40:56.488Z,43.50
2018-05-26T12:41:56.959Z,43.63
2018-05-26T12:42:57.435Z,44.65
2018-05-26T12:43:57.911Z,44.85
2018-05-26T12:44:58.384Z,44.78
2018-05-26T12:45:58.909Z,44.68
2018-05-26T12:46:59.333Z,44.91
2018-05-26T12:47:59.807Z,44.88
2018-05-26T12:49:00.281Z,44.82
2018-05-26T12:50:00.758Z,44.69
2018-05-26T12:51:01.231Z,44.66
2018-05-26T12:52:01.705Z,44.69
2018-05-26T12:53:02.179Z,45.02
2018-05-26T12:54:02.652Z,45.08
2018-05-26T12:55:03.126Z,45.08
2018-05-26T12:56:03.803Z,44.73
2018-05-26T12:57:04.075Z,44.82
2018-05-26T12:58:04.550Z,44.92
2018-05-26T12:59:05.026Z,45.22
2018-05-26T13:00:05.497Z,44.86
2018-05-26T13:01:06.024Z,44.83
2018-05-26T13:02:06.444Z,44.76